sensor_id;sensor_type;location;lat;lon;timestamp;pressure;altitude;pressure_sealevel;temperature;humidity
28628;BME280;15815;46.760;19.604;2023-05-15T00:01:55;99636.66;;;14.17;100.00
28628;BME280;15815;46.760;19.604;2023-05-15T00:04:21;99649.19;;;14.16;100.00
28628;BME280;15815;46.760;19.604;2023-05-15T00:06:46;99644.59;;;14.22;100.00
28628;BME280;15815;46.760;19.604;2023-05-15T00:09:12;99642.31;;;14.17;100.00
28628;BME280;15815;46.760;19.604;2023-05-15T00:11:37;99645.94;;;14.18;100.00
28628;BME280;15815;46.760;19.604;2023-05-15T00:14:03;99647.50;;;14.19;100.00
28628;BME280;15815;46.760;19.604;2023-05-15T00:16:28;99652.03;;;14.16;100.00
28628;BME280;15815;46.760;19.604;2023-05-15T00:18:54;99641.25;;;14.11;100.00
28628;BME280;15815;46.760;19.604;2023-05-15T00:21:19;99638.09;;;14.09;100.00
28628;BME280;15815;46.760;19.604;2023-05-15T00:23:45;99634.13;;;14.07;100.00
28628;BME280;15815;46.760;19.604;2023-05-15T00:26:11;99646.03;;;14.14;100.00
28628;BME280;15815;46.760;19.604;2023-05-15T00:28:37;99631.91;;;14.14;100.00
28628;BME280;15815;46.760;19.604;2023-05-15T00:31:02;99629.38;;;14.04;100.00
28628;BME280;15815;46.760;19.604;2023-05-15T00:33:28;99639.44;;;14.05;100.00
28628;BME280;15815;46.760;19.604;2023-05-15T00:35:53;99628.34;;;13.98;100.00
28628;BME280;15815;46.760;19.604;2023-05-15T00:38:19;99636.97;;;14.07;100.00
28628;BME280;15815;46.760;19.604;2023-05-15T00:40:47;99631.94;;;13.98;100.00
28628;BME280;15815;46.760;19.604;2023-05-15T00:43:13;99646.66;;;14.06;100.00
28628;BME280;15815;46.760;19.604;2023-05-15T00:45:41;99634.78;;;13.98;100.00
28628;BME280;15815;46.760;19.604;2023-05-15T00:48:08;99640.06;;;13.96;100.00
28628;BME280;15815;46.760;19.604;2023-05-15T00:50:34;99635.91;;;14.01;100.00
28628;BME280;15815;46.760;19.604;2023-05-15T00:53:01;99625.84;;;14.00;100.00
28628;BME280;15815;46.760;19.604;2023-05-15T00:55:27;99605.56;;;13.88;100.00
28628;BME280;15815;46.760;19.604;2023-05-15T00:57:55;99626.31;;;13.98;100.00
28628;BME280;15815;46.760;19.604;2023-05-15T01:00:20;99625.41;;;14.01;100.00
28628;BME280;15815;46.760;19.604;2023-05-15T01:02:46;99619.56;;;13.92;100.00
28628;BME280;15815;46.760;19.604;2023-05-15T01:05:15;99643.25;;;13.98;100.00
28628;BME280;15815;46.760;19.604;2023-05-15T01:07:54;99642.97;;;13.92;100.00
28628;BME280;15815;46.760;19.604;2023-05-15T01:10:21;99648.09;;;13.98;100.00
28628;BME280;15815;46.760;19.604;2023-05-15T01:12:49;99636.88;;;13.94;100.00
28628;BME280;15815;46.760;19.604;2023-05-15T01:15:17;99633.34;;;13.90;100.00
28628;BME280;15815;46.760;19.604;2023-05-15T01:17:43;99642.63;;;13.90;100.00
28628;BME280;15815;46.760;19.604;2023-05-15T01:20:09;99638.50;;;13.79;100.00
28628;BME280;15815;46.760;19.604;2023-05-15T01:28:31;99644.41;;;13.84;100.00
28628;BME280;15815;46.760;19.604;2023-05-15T01:31:06;99643.50;;;13.87;100.00
28628;BME280;15815;46.760;19.604;2023-05-15T01:33:37;99631.63;;;13.80;100.00
28628;BME280;15815;46.760;19.604;2023-05-15T01:38:34;99634.69;;;13.85;100.00
28628;BME280;15815;46.760;19.604;2023-05-15T01:41:07;99628.44;;;13.78;100.00
28628;BME280;15815;46.760;19.604;2023-05-15T01:43:38;99642.91;;;13.80;100.00
28628;BME280;15815;46.760;19.604;2023-05-15T01:46:06;99634.28;;;13.71;100.00
28628;BME280;15815;46.760;19.604;2023-05-15T01:48:33;99640.19;;;13.76;100.00
28628;BME280;15815;46.760;19.604;2023-05-15T01:51:01;99634.19;;;13.74;100.00
28628;BME280;15815;46.760;19.604;2023-05-15T01:53:31;99647.88;;;13.76;100.00
28628;BME280;15815;46.760;19.604;2023-05-15T01:56:02;99651.81;;;13.78;100.00
28628;BME280;15815;46.760;19.604;2023-05-15T01:58:29;99651.72;;;13.66;100.00
28628;BME280;15815;46.760;19.604;2023-05-15T02:00:56;99660.19;;;13.66;100.00
28628;BME280;15815;46.760;19.604;2023-05-15T02:03:23;99640.97;;;13.60;100.00
28628;BME280;15815;46.760;19.604;2023-05-15T02:05:49;99638.94;;;13.61;100.00
28628;BME280;15815;46.760;19.604;2023-05-15T02:08:16;99630.13;;;13.59;100.00
28628;BME280;15815;46.760;19.604;2023-05-15T02:10:42;99640.19;;;13.60;100.00
28628;BME280;15815;46.760;19.604;2023-05-15T02:13:08;99619.56;;;13.47;100.00
28628;BME280;15815;46.760;19.604;2023-05-15T02:15:34;99619.56;;;13.47;100.00
28628;BME280;15815;46.760;19.604;2023-05-15T02:18:00;99616.19;;;13.52;100.00
28628;BME280;15815;46.760;19.604;2023-05-15T02:20:26;99637.09;;;13.54;100.00
28628;BME280;15815;46.760;19.604;2023-05-15T02:22:52;99611.59;;;13.42;100.00
28628;BME280;15815;46.760;19.604;2023-05-15T02:25:19;99633.56;;;13.50;100.00
28628;BME280;15815;46.760;19.604;2023-05-15T02:28:00;99625.91;;;13.51;100.00
28628;BME280;15815;46.760;19.604;2023-05-15T02:30:37;99627.84;;;13.54;100.00
28628;BME280;15815;46.760;19.604;2023-05-15T02:35:53;99627.03;;;13.53;100.00
28628;BME280;15815;46.760;19.604;2023-05-15T02:38:30;99609.22;;;13.56;100.00
28628;BME280;15815;46.760;19.604;2023-05-15T02:43:35;99604.91;;;13.52;100.00
28628;BME280;15815;46.760;19.604;2023-05-15T02:46:04;99597.31;;;13.49;100.00
28628;BME280;15815;46.760;19.604;2023-05-15T02:48:36;99616.88;;;13.56;100.00
28628;BME280;15815;46.760;19.604;2023-05-15T02:51:04;99614.88;;;13.56;100.00
28628;BME280;15815;46.760;19.604;2023-05-15T02:53:31;99605.25;;;13.54;100.00
28628;BME280;15815;46.760;19.604;2023-05-15T02:55:57;99599.94;;;13.56;100.00
28628;BME280;15815;46.760;19.604;2023-05-15T02:58:22;99601.97;;;13.55;100.00
28628;BME280;15815;46.760;19.604;2023-05-15T03:00:48;99603.13;;;13.58;100.00
28628;BME280;15815;46.760;19.604;2023-05-15T03:03:14;99593.97;;;13.54;100.00
28628;BME280;15815;46.760;19.604;2023-05-15T03:05:39;99589.91;;;13.55;100.00
28628;BME280;15815;46.760;19.604;2023-05-15T03:08:05;99597.13;;;13.56;100.00
28628;BME280;15815;46.760;19.604;2023-05-15T03:10:30;99597.47;;;13.58;100.00
28628;BME280;15815;46.760;19.604;2023-05-15T03:12:56;99599.84;;;13.59;100.00
28628;BME280;15815;46.760;19.604;2023-05-15T03:15:22;99601.44;;;13.60;100.00
28628;BME280;15815;46.760;19.604;2023-05-15T03:17:48;99597.28;;;13.65;100.00
28628;BME280;15815;46.760;19.604;2023-05-15T03:20:14;99596.41;;;13.68;100.00
28628;BME280;15815;46.760;19.604;2023-05-15T03:22:40;99601.19;;;13.71;100.00
28628;BME280;15815;46.760;19.604;2023-05-15T03:25:09;99594.81;;;13.67;100.00
28628;BME280;15815;46.760;19.604;2023-05-15T03:27:34;99572.06;;;13.58;100.00
28628;BME280;15815;46.760;19.604;2023-05-15T03:30:01;99570.13;;;13.55;100.00
28628;BME280;15815;46.760;19.604;2023-05-15T03:32:26;99590.84;;;13.65;100.00
28628;BME280;15815;46.760;19.604;2023-05-15T03:34:52;99569.44;;;13.51;100.00
28628;BME280;15815;46.760;19.604;2023-05-15T03:37:17;99586.44;;;13.64;100.00
28628;BME280;15815;46.760;19.604;2023-05-15T03:39:43;99567.75;;;13.70;100.00
28628;BME280;15815;46.760;19.604;2023-05-15T03:42:08;99571.25;;;13.74;100.00
28628;BME280;15815;46.760;19.604;2023-05-15T03:44:34;99566.41;;;13.74;100.00
28628;BME280;15815;46.760;19.604;2023-05-15T03:46:59;99551.41;;;13.77;100.00
28628;BME280;15815;46.760;19.604;2023-05-15T03:49:25;99537.28;;;13.61;100.00
28628;BME280;15815;46.760;19.604;2023-05-15T03:51:51;99539.41;;;13.73;100.00
28628;BME280;15815;46.760;19.604;2023-05-15T03:54:18;99530.47;;;13.75;100.00
28628;BME280;15815;46.760;19.604;2023-05-15T03:56:43;99545.41;;;13.75;100.00
28628;BME280;15815;46.760;19.604;2023-05-15T03:59:10;99543.81;;;13.74;100.00
28628;BME280;15815;46.760;19.604;2023-05-15T04:01:35;99551.19;;;13.84;100.00
28628;BME280;15815;46.760;19.604;2023-05-15T04:04:01;99546.47;;;13.94;100.00
28628;BME280;15815;46.760;19.604;2023-05-15T04:06:27;99523.09;;;13.93;100.00
28628;BME280;15815;46.760;19.604;2023-05-15T04:08:52;99513.63;;;14.00;100.00
28628;BME280;15815;46.760;19.604;2023-05-15T04:11:18;99523.47;;;14.08;100.00
28628;BME280;15815;46.760;19.604;2023-05-15T04:13:43;99560.53;;;13.98;100.00
28628;BME280;15815;46.760;19.604;2023-05-15T04:16:09;99569.78;;;13.98;100.00
28628;BME280;15815;46.760;19.604;2023-05-15T04:18:35;99563.53;;;13.90;100.00
28628;BME280;15815;46.760;19.604;2023-05-15T04:21:01;99571.44;;;13.96;100.00
28628;BME280;15815;46.760;19.604;2023-05-15T04:23:26;99559.47;;;13.91;100.00
28628;BME280;15815;46.760;19.604;2023-05-15T04:25:52;99542.22;;;13.73;100.00
28628;BME280;15815;46.760;19.604;2023-05-15T04:28:18;99564.53;;;13.84;100.00
28628;BME280;15815;46.760;19.604;2023-05-15T04:30:43;99569.34;;;14.00;100.00
28628;BME280;15815;46.760;19.604;2023-05-15T04:33:09;99534.34;;;13.81;100.00
28628;BME280;15815;46.760;19.604;2023-05-15T04:35:34;99561.22;;;14.02;100.00
28628;BME280;15815;46.760;19.604;2023-05-15T04:38:00;99543.81;;;14.03;100.00
28628;BME280;15815;46.760;19.604;2023-05-15T04:40:25;99531.72;;;14.03;100.00
28628;BME280;15815;46.760;19.604;2023-05-15T04:42:51;99515.75;;;13.96;100.00
28628;BME280;15815;46.760;19.604;2023-05-15T04:45:16;99528.34;;;14.08;100.00
28628;BME280;15815;46.760;19.604;2023-05-15T04:47:42;99543.94;;;14.12;100.00
28628;BME280;15815;46.760;19.604;2023-05-15T04:50:07;99560.47;;;14.14;100.00
28628;BME280;15815;46.760;19.604;2023-05-15T04:52:33;99572.56;;;14.14;100.00
28628;BME280;15815;46.760;19.604;2023-05-15T04:55:02;99573.44;;;14.11;100.00
28628;BME280;15815;46.760;19.604;2023-05-15T04:57:28;99573.44;;;14.11;100.00
28628;BME280;15815;46.760;19.604;2023-05-15T04:59:53;99570.84;;;14.17;100.00
28628;BME280;15815;46.760;19.604;2023-05-15T05:02:20;99571.75;;;14.14;100.00
28628;BME280;15815;46.760;19.604;2023-05-15T05:04:48;99578.75;;;14.09;100.00
28628;BME280;15815;46.760;19.604;2023-05-15T05:07:14;99586.44;;;14.09;100.00
28628;BME280;15815;46.760;19.604;2023-05-15T05:09:40;99596.94;;;14.08;100.00
28628;BME280;15815;46.760;19.604;2023-05-15T05:12:06;99594.56;;;14.07;100.00
28628;BME280;15815;46.760;19.604;2023-05-15T05:14:32;99602.19;;;14.22;100.00
28628;BME280;15815;46.760;19.604;2023-05-15T05:16:58;99601.41;;;14.22;100.00
28628;BME280;15815;46.760;19.604;2023-05-15T05:19:23;99593.38;;;14.20;100.00
28628;BME280;15815;46.760;19.604;2023-05-15T05:21:50;99594.56;;;14.36;100.00
28628;BME280;15815;46.760;19.604;2023-05-15T05:24:16;99590.53;;;14.49;100.00
28628;BME280;15815;46.760;19.604;2023-05-15T05:26:44;99599.53;;;14.61;100.00
28628;BME280;15815;46.760;19.604;2023-05-15T05:29:10;99605.75;;;14.56;100.00
28628;BME280;15815;46.760;19.604;2023-05-15T05:31:35;99615.91;;;14.53;100.00
28628;BME280;15815;46.760;19.604;2023-05-15T05:34:01;99616.03;;;14.62;100.00
28628;BME280;15815;46.760;19.604;2023-05-15T05:36:26;99608.25;;;14.66;100.00
28628;BME280;15815;46.760;19.604;2023-05-15T05:38:52;99614.81;;;14.76;100.00
28628;BME280;15815;46.760;19.604;2023-05-15T05:41:18;99618.09;;;14.74;100.00
28628;BME280;15815;46.760;19.604;2023-05-15T05:43:43;99617.28;;;14.74;100.00
28628;BME280;15815;46.760;19.604;2023-05-15T05:46:09;99610.28;;;14.78;100.00
28628;BME280;15815;46.760;19.604;2023-05-15T05:48:34;99607.91;;;14.77;100.00
28628;BME280;15815;46.760;19.604;2023-05-15T05:51:00;99594.25;;;14.88;100.00
28628;BME280;15815;46.760;19.604;2023-05-15T05:53:26;99582.25;;;14.84;100.00
28628;BME280;15815;46.760;19.604;2023-05-15T05:55:52;99606.13;;;14.83;100.00
28628;BME280;15815;46.760;19.604;2023-05-15T05:58:19;99605.00;;;14.93;100.00
28628;BME280;15815;46.760;19.604;2023-05-15T06:00:45;99613.47;;;15.06;100.00
28628;BME280;15815;46.760;19.604;2023-05-15T06:03:10;99608.53;;;15.10;100.00
28628;BME280;15815;46.760;19.604;2023-05-15T06:05:36;99597.41;;;15.03;100.00
28628;BME280;15815;46.760;19.604;2023-05-15T06:08:01;99612.94;;;15.11;100.00
28628;BME280;15815;46.760;19.604;2023-05-15T06:10:27;99610.09;;;15.11;100.00
28628;BME280;15815;46.760;19.604;2023-05-15T06:12:55;99626.75;;;15.22;100.00
28628;BME280;15815;46.760;19.604;2023-05-15T06:15:21;99641.13;;;15.27;100.00
28628;BME280;15815;46.760;19.604;2023-05-15T06:17:47;99662.19;;;15.39;100.00
28628;BME280;15815;46.760;19.604;2023-05-15T06:20:14;99651.78;;;15.36;100.00
28628;BME280;15815;46.760;19.604;2023-05-15T06:22:41;99657.06;;;15.34;100.00
28628;BME280;15815;46.760;19.604;2023-05-15T06:25:06;99651.88;;;15.45;100.00
28628;BME280;15815;46.760;19.604;2023-05-15T06:27:32;99654.13;;;15.50;100.00
28628;BME280;15815;46.760;19.604;2023-05-15T06:29:59;99641.88;;;15.53;100.00
28628;BME280;15815;46.760;19.604;2023-05-15T06:32:24;99639.41;;;15.55;100.00
28628;BME280;15815;46.760;19.604;2023-05-15T06:34:50;99636.00;;;15.60;100.00
28628;BME280;15815;46.760;19.604;2023-05-15T06:37:16;99624.78;;;15.57;100.00
28628;BME280;15815;46.760;19.604;2023-05-15T06:39:45;99622.66;;;15.61;100.00
28628;BME280;15815;46.760;19.604;2023-05-15T06:42:10;99626.94;;;15.78;100.00
28628;BME280;15815;46.760;19.604;2023-05-15T06:44:37;99628.06;;;15.81;100.00
28628;BME280;15815;46.760;19.604;2023-05-15T06:47:03;99627.72;;;15.79;100.00
28628;BME280;15815;46.760;19.604;2023-05-15T06:49:29;99620.81;;;15.80;100.00
28628;BME280;15815;46.760;19.604;2023-05-15T06:51:55;99631.47;;;15.75;100.00
28628;BME280;15815;46.760;19.604;2023-05-15T06:54:20;99631.22;;;15.57;100.00
28628;BME280;15815;46.760;19.604;2023-05-15T06:56:46;99642.94;;;15.59;100.00
28628;BME280;15815;46.760;19.604;2023-05-15T06:59:11;99637.97;;;15.63;100.00
28628;BME280;15815;46.760;19.604;2023-05-15T07:01:37;99646.34;;;15.67;100.00
28628;BME280;15815;46.760;19.604;2023-05-15T07:04:03;99628.97;;;15.52;100.00
28628;BME280;15815;46.760;19.604;2023-05-15T07:06:30;99648.34;;;15.54;100.00
28628;BME280;15815;46.760;19.604;2023-05-15T07:08:55;99628.75;;;15.34;100.00
28628;BME280;15815;46.760;19.604;2023-05-15T07:11:21;99648.47;;;15.50;100.00
28628;BME280;15815;46.760;19.604;2023-05-15T07:13:47;99645.53;;;15.41;100.00
28628;BME280;15815;46.760;19.604;2023-05-15T07:16:12;99648.72;;;15.43;100.00
28628;BME280;15815;46.760;19.604;2023-05-15T07:18:38;99646.88;;;15.49;100.00
28628;BME280;15815;46.760;19.604;2023-05-15T07:21:03;99643.94;;;15.53;100.00
28628;BME280;15815;46.760;19.604;2023-05-15T07:23:32;99652.91;;;15.64;100.00
28628;BME280;15815;46.760;19.604;2023-05-15T07:25:57;99657.34;;;15.65;100.00
28628;BME280;15815;46.760;19.604;2023-05-15T07:28:23;99650.97;;;15.61;100.00
28628;BME280;15815;46.760;19.604;2023-05-15T07:30:49;99676.56;;;15.83;100.00
28628;BME280;15815;46.760;19.604;2023-05-15T07:33:15;99683.59;;;15.91;100.00
28628;BME280;15815;46.760;19.604;2023-05-15T07:35:41;99677.22;;;15.87;100.00
28628;BME280;15815;46.760;19.604;2023-05-15T07:38:07;99658.75;;;15.95;100.00
28628;BME280;15815;46.760;19.604;2023-05-15T07:40:35;99671.88;;;16.01;100.00
28628;BME280;15815;46.760;19.604;2023-05-15T07:43:01;99672.53;;;16.05;100.00
28628;BME280;15815;46.760;19.604;2023-05-15T07:45:26;99674.00;;;16.10;100.00
28628;BME280;15815;46.760;19.604;2023-05-15T07:47:52;99653.38;;;16.10;100.00
28628;BME280;15815;46.760;19.604;2023-05-15T07:50:17;99663.09;;;16.21;100.00
28628;BME280;15815;46.760;19.604;2023-05-15T07:52:43;99674.50;;;16.30;100.00
28628;BME280;15815;46.760;19.604;2023-05-15T07:55:09;99689.28;;;16.25;100.00
28628;BME280;15815;46.760;19.604;2023-05-15T07:57:38;99691.06;;;16.32;100.00
28628;BME280;15815;46.760;19.604;2023-05-15T08:00:04;99692.72;;;16.42;100.00
28628;BME280;15815;46.760;19.604;2023-05-15T08:02:30;99688.41;;;16.50;100.00
28628;BME280;15815;46.760;19.604;2023-05-15T08:04:55;99693.91;;;16.66;100.00
28628;BME280;15815;46.760;19.604;2023-05-15T08:07:21;99695.81;;;16.69;100.00
28628;BME280;15815;46.760;19.604;2023-05-15T08:09:46;99680.81;;;16.69;100.00
28628;BME280;15815;46.760;19.604;2023-05-15T08:12:19;99684.91;;;16.68;100.00
28628;BME280;15815;46.760;19.604;2023-05-15T08:14:50;99688.16;;;16.79;100.00
28628;BME280;15815;46.760;19.604;2023-05-15T08:17:16;99709.16;;;16.82;100.00
28628;BME280;15815;46.760;19.604;2023-05-15T08:19:41;99708.69;;;16.83;100.00
28628;BME280;15815;46.760;19.604;2023-05-15T08:22:07;99697.56;;;16.54;100.00
28628;BME280;15815;46.760;19.604;2023-05-15T08:24:33;99696.38;;;16.64;100.00
28628;BME280;15815;46.760;19.604;2023-05-15T08:26:58;99701.91;;;16.81;100.00
28628;BME280;15815;46.760;19.604;2023-05-15T08:29:24;99712.38;;;16.93;100.00
28628;BME280;15815;46.760;19.604;2023-05-15T08:31:49;99718.28;;;16.98;100.00
28628;BME280;15815;46.760;19.604;2023-05-15T08:34:15;99715.00;;;17.09;100.00
28628;BME280;15815;46.760;19.604;2023-05-15T08:36:40;99713.81;;;16.97;100.00
28628;BME280;15815;46.760;19.604;2023-05-15T08:39:06;99711.34;;;16.99;100.00
28628;BME280;15815;46.760;19.604;2023-05-15T08:41:32;99699.91;;;16.90;100.00
28628;BME280;15815;46.760;19.604;2023-05-15T08:44:02;99706.97;;;17.08;100.00
28628;BME280;15815;46.760;19.604;2023-05-15T08:46:30;99710.50;;;17.21;100.00
28628;BME280;15815;46.760;19.604;2023-05-15T08:48:57;99717.38;;;17.33;100.00
28628;BME280;15815;46.760;19.604;2023-05-15T08:51:24;99709.38;;;17.49;100.00
28628;BME280;15815;46.760;19.604;2023-05-15T08:53:50;99708.97;;;17.60;97.73
28628;BME280;15815;46.760;19.604;2023-05-15T08:56:17;99718.09;;;17.86;99.39
28628;BME280;15815;46.760;19.604;2023-05-15T08:58:43;99714.25;;;17.71;97.36
28628;BME280;15815;46.760;19.604;2023-05-15T09:01:13;99705.72;;;17.80;98.13
28628;BME280;15815;46.760;19.604;2023-05-15T09:03:40;99719.75;;;18.14;97.49
28628;BME280;15815;46.760;19.604;2023-05-15T09:06:05;99715.47;;;18.19;94.63
28628;BME280;15815;46.760;19.604;2023-05-15T09:08:32;99721.16;;;18.10;92.96
28628;BME280;15815;46.760;19.604;2023-05-15T09:11:01;99726.66;;;18.04;93.35
28628;BME280;15815;46.760;19.604;2023-05-15T09:13:27;99736.19;;;18.19;92.74
28628;BME280;15815;46.760;19.604;2023-05-15T09:15:52;99739.81;;;18.20;93.60
28628;BME280;15815;46.760;19.604;2023-05-15T09:18:19;99733.28;;;18.01;90.44
28628;BME280;15815;46.760;19.604;2023-05-15T09:20:44;99718.56;;;17.84;88.54
28628;BME280;15815;46.760;19.604;2023-05-15T09:23:26;99748.66;;;18.22;87.90
28628;BME280;15815;46.760;19.604;2023-05-15T09:25:52;99734.97;;;18.39;89.42
28628;BME280;15815;46.760;19.604;2023-05-15T09:28:29;99733.38;;;18.56;90.06
28628;BME280;15815;46.760;19.604;2023-05-15T09:31:00;99738.34;;;18.65;89.48
28628;BME280;15815;46.760;19.604;2023-05-15T09:33:37;99734.00;;;18.60;90.17
28628;BME280;15815;46.760;19.604;2023-05-15T09:36:05;99748.91;;;18.73;90.61
28628;BME280;15815;46.760;19.604;2023-05-15T09:38:32;99726.47;;;18.75;91.50
28628;BME280;15815;46.760;19.604;2023-05-15T09:41:05;99736.88;;;18.88;91.80
28628;BME280;15815;46.760;19.604;2023-05-15T09:43:36;99744.66;;;18.96;91.48
28628;BME280;15815;46.760;19.604;2023-05-15T09:46:02;99743.38;;;18.97;91.42
28628;BME280;15815;46.760;19.604;2023-05-15T09:48:29;99753.66;;;19.04;91.13
28628;BME280;15815;46.760;19.604;2023-05-15T09:50:54;99749.03;;;19.15;90.76
28628;BME280;15815;46.760;19.604;2023-05-15T09:53:20;99757.13;;;19.08;90.16
28628;BME280;15815;46.760;19.604;2023-05-15T09:55:46;99745.75;;;18.80;90.11
28628;BME280;15815;46.760;19.604;2023-05-15T09:58:17;99753.03;;;18.81;89.82
28628;BME280;15815;46.760;19.604;2023-05-15T10:00:44;99755.25;;;18.77;89.50
28628;BME280;15815;46.760;19.604;2023-05-15T10:03:10;99752.38;;;18.87;89.63
28628;BME280;15815;46.760;19.604;2023-05-15T10:05:37;99762.19;;;18.86;88.83
28628;BME280;15815;46.760;19.604;2023-05-15T10:08:04;99767.91;;;18.67;88.70
28628;BME280;15815;46.760;19.604;2023-05-15T10:10:30;99777.22;;;18.77;88.52
28628;BME280;15815;46.760;19.604;2023-05-15T10:12:58;99766.72;;;18.56;86.72
28628;BME280;15815;46.760;19.604;2023-05-15T10:15:24;99772.66;;;18.70;89.01
28628;BME280;15815;46.760;19.604;2023-05-15T10:17:51;99759.03;;;18.65;89.04
28628;BME280;15815;46.760;19.604;2023-05-15T10:20:18;99782.44;;;18.69;89.87
28628;BME280;15815;46.760;19.604;2023-05-15T10:22:46;99774.06;;;18.84;89.50
28628;BME280;15815;46.760;19.604;2023-05-15T10:27:43;99763.94;;;19.01;88.47
28628;BME280;15815;46.760;19.604;2023-05-15T10:30:14;99765.81;;;19.04;88.96
28628;BME280;15815;46.760;19.604;2023-05-15T10:32:40;99768.34;;;19.11;88.84
28628;BME280;15815;46.760;19.604;2023-05-15T10:35:09;99785.75;;;19.23;87.85
28628;BME280;15815;46.760;19.604;2023-05-15T10:37:38;99783.88;;;19.20;87.08
28628;BME280;15815;46.760;19.604;2023-05-15T10:40:06;99781.47;;;19.09;86.26
28628;BME280;15815;46.760;19.604;2023-05-15T10:42:33;99780.25;;;18.92;86.00
28628;BME280;15815;46.760;19.604;2023-05-15T10:45:00;99771.06;;;18.97;85.28
28628;BME280;15815;46.760;19.604;2023-05-15T10:47:26;99767.91;;;18.95;85.67
28628;BME280;15815;46.760;19.604;2023-05-15T10:49:53;99785.00;;;18.95;85.31
28628;BME280;15815;46.760;19.604;2023-05-15T10:52:19;99778.00;;;18.87;84.97
28628;BME280;15815;46.760;19.604;2023-05-15T10:54:45;99778.97;;;18.83;85.00
28628;BME280;15815;46.760;19.604;2023-05-15T10:57:11;99770.91;;;18.73;84.74
28628;BME280;15815;46.760;19.604;2023-05-15T10:59:37;99772.63;;;18.89;84.33
28628;BME280;15815;46.760;19.604;2023-05-15T11:02:21;99756.03;;;18.87;83.74
28628;BME280;15815;46.760;19.604;2023-05-15T11:04:46;99768.69;;;19.04;84.07
28628;BME280;15815;46.760;19.604;2023-05-15T11:07:14;99761.91;;;18.93;84.19
28628;BME280;15815;46.760;19.604;2023-05-15T11:09:40;99752.66;;;19.16;84.36
28628;BME280;15815;46.760;19.604;2023-05-15T11:12:08;99762.47;;;19.33;83.70
28628;BME280;15815;46.760;19.604;2023-05-15T11:17:07;99762.97;;;19.04;79.92
28628;BME280;15815;46.760;19.604;2023-05-15T11:19:35;99767.56;;;19.02;81.78
28628;BME280;15815;46.760;19.604;2023-05-15T11:27:41;99769.47;;;18.87;79.81
28628;BME280;15815;46.760;19.604;2023-05-15T11:32:56;99769.47;;;18.87;79.42
28628;BME280;15815;46.760;19.604;2023-05-15T11:35:26;99750.94;;;18.45;81.49
28628;BME280;15815;46.760;19.604;2023-05-15T11:37:55;99770.38;;;18.47;80.68
28628;BME280;15815;46.760;19.604;2023-05-15T11:40:26;99774.53;;;18.64;80.29
28628;BME280;15815;46.760;19.604;2023-05-15T11:43:26;99776.59;;;18.64;79.49
28628;BME280;15815;46.760;19.604;2023-05-15T11:48:30;99757.78;;;18.75;79.49
28628;BME280;15815;46.760;19.604;2023-05-15T11:50:56;99744.13;;;18.43;80.92
28628;BME280;15815;46.760;19.604;2023-05-15T11:53:23;99756.47;;;18.58;80.19
28628;BME280;15815;46.760;19.604;2023-05-15T11:55:51;99755.34;;;18.46;80.13
28628;BME280;15815;46.760;19.604;2023-05-15T11:58:22;99766.00;;;18.64;80.76
28628;BME280;15815;46.760;19.604;2023-05-15T12:00:49;99762.78;;;18.53;80.52
28628;BME280;15815;46.760;19.604;2023-05-15T12:03:26;99771.00;;;18.60;80.31
28628;BME280;15815;46.760;19.604;2023-05-15T12:05:52;99768.31;;;18.57;79.63
28628;BME280;15815;46.760;19.604;2023-05-15T12:08:19;99762.47;;;18.60;80.32
28628;BME280;15815;46.760;19.604;2023-05-15T12:10:45;99761.72;;;18.69;80.38
28628;BME280;15815;46.760;19.604;2023-05-15T12:13:15;99746.38;;;18.75;80.20
28628;BME280;15815;46.760;19.604;2023-05-15T12:15:45;99731.53;;;18.71;78.58
28628;BME280;15815;46.760;19.604;2023-05-15T12:18:11;99738.31;;;18.74;79.50
28628;BME280;15815;46.760;19.604;2023-05-15T12:20:39;99759.34;;;18.76;79.72
28628;BME280;15815;46.760;19.604;2023-05-15T12:23:06;99747.66;;;18.74;79.76
28628;BME280;15815;46.760;19.604;2023-05-15T12:25:33;99759.31;;;18.49;80.79
28628;BME280;15815;46.760;19.604;2023-05-15T12:28:02;99764.53;;;18.60;80.32
28628;BME280;15815;46.760;19.604;2023-05-15T12:30:32;99757.56;;;18.61;80.14
28628;BME280;15815;46.760;19.604;2023-05-15T12:33:03;99744.59;;;18.60;80.35
28628;BME280;15815;46.760;19.604;2023-05-15T12:35:29;99753.94;;;18.60;80.44
28628;BME280;15815;46.760;19.604;2023-05-15T12:37:56;99737.84;;;18.66;80.37
28628;BME280;15815;46.760;19.604;2023-05-15T12:40:22;99737.06;;;18.75;80.42
28628;BME280;15815;46.760;19.604;2023-05-15T12:42:52;99733.41;;;18.83;80.46
28628;BME280;15815;46.760;19.604;2023-05-15T12:45:19;99715.88;;;18.67;80.65
28628;BME280;15815;46.760;19.604;2023-05-15T12:47:47;99730.41;;;18.78;80.62
28628;BME280;15815;46.760;19.604;2023-05-15T12:55:28;99736.13;;;18.69;80.32
28628;BME280;15815;46.760;19.604;2023-05-15T12:57:58;99739.06;;;18.56;81.64
28628;BME280;15815;46.760;19.604;2023-05-15T13:00:24;99741.50;;;18.67;81.07
28628;BME280;15815;46.760;19.604;2023-05-15T13:02:54;99727.09;;;18.70;80.48
28628;BME280;15815;46.760;19.604;2023-05-15T13:05:28;99719.81;;;18.78;79.98
28628;BME280;15815;46.760;19.604;2023-05-15T13:07:57;99720.44;;;18.73;81.38
28628;BME280;15815;46.760;19.604;2023-05-15T13:10:23;99724.53;;;18.54;81.89
28628;BME280;15815;46.760;19.604;2023-05-15T13:12:51;99716.16;;;18.50;81.60
28628;BME280;15815;46.760;19.604;2023-05-15T13:15:41;99709.97;;;18.34;81.72
28628;BME280;15815;46.760;19.604;2023-05-15T13:18:07;99714.44;;;18.62;81.02